Time;durP1;ratioP1;P1;durP2;ratioP2;P2;SDS_P1;SDS_P2;PMS_P1;PMS_P2;Temp;Humidity;BMP_temperature;BMP_pressure;BME280_temperature;BME280_humidity;BME280_pressure;Samples;Min_cycle;Max_cycle;Signal;HPM_P1;HPM_P2
2022/01/01 00:02:05;;;;;;;7.60;5.20;;;;;;;2.58;94.98;98486.88;109570;1272;22516;-67
2022/01/01 00:04:55;;;;;;;14.60;7.90;;;;;;;2.60;94.97;98480.63;109471;1273;138397;-67
2022/01/01 00:07:23;;;;;;;20.90;13.50;;;;;;;2.63;95.22;98481.48;109550;1273;22386;-67
2022/01/01 00:09:51;;;;;;;25.20;18.00;;;;;;;2.66;95.10;98480.66;109360;1274;138299;-67
2022/01/01 00:12:19;;;;;;;36.70;24.20;;;;;;;2.68;95.18;98472.23;109550;1272;22447;-67
2022/01/01 00:14:48;;;;;;;30.40;21.40;;;;;;;2.72;95.35;98472.54;109547;1271;22448;-67
2022/01/01 00:17:16;;;;;;;37.80;23.40;;;;;;;2.76;95.40;98472.66;109469;1271;139694;-68
2022/01/01 00:19:45;;;;;;;34.40;24.00;;;;;;;2.79;95.37;98470.79;109609;1272;22437;-68
2022/01/01 00:22:12;;;;;;;30.40;22.40;;;;;;;2.81;95.40;98467.19;109394;1274;139715;-67
2022/01/01 00:24:40;;;;;;;32.40;22.50;;;;;;;2.84;95.43;98466.15;109489;1273;23550;-67
2022/01/01 00:27:08;;;;;;;33.60;21.80;;;;;;;2.87;95.48;98463.09;105921;1274;24361;-66
2022/01/01 00:29:37;;;;;;;28.70;16.50;;;;;;;2.89;95.50;98459.52;109249;1274;139308;-68
2022/01/01 00:32:05;;;;;;;31.10;15.70;;;;;;;2.92;95.67;98459.89;109604;1273;22525;-68
2022/01/01 00:34:35;;;;;;;19.20;11.40;;;;;;;2.94;95.59;98456.95;109460;1271;137590;-67
2022/01/01 00:37:03;;;;;;;23.50;9.90;;;;;;;2.97;95.82;98453.58;109572;1271;22415;-67
2022/01/01 00:39:32;;;;;;;13.80;9.80;;;;;;;2.99;95.97;98445.02;109469;1273;22523;-68
2022/01/01 00:42:00;;;;;;;11.40;6.80;;;;;;;3.02;95.76;98445.29;109348;1273;137507;-68
2022/01/01 00:44:32;;;;;;;8.40;5.20;;;;;;;3.05;95.88;98439.89;109572;1271;22535;-68
2022/01/01 00:47:00;;;;;;;7.00;4.80;;;;;;;3.07;95.94;98437.58;109491;1273;138788;-68
2022/01/01 00:49:29;;;;;;;6.80;3.90;;;;;;;3.09;96.00;98435.21;109529;1274;22482;-67
2022/01/01 00:51:57;;;;;;;5.20;3.90;;;;;;;3.10;96.06;98431.84;109420;1271;139042;-67
2022/01/01 00:54:25;;;;;;;5.40;3.80;;;;;;;3.11;96.00;98427.73;109530;1271;22850;-67
2022/01/01 00:56:54;;;;;;;4.90;2.70;;;;;;;3.12;95.87;98430.56;109591;1271;23668;-67
2022/01/01 00:59:22;;;;;;;5.10;3.20;;;;;;;3.14;95.87;98426.61;109458;1272;138931;-68
2022/01/01 01:01:50;;;;;;;4.10;2.90;;;;;;;3.17;96.21;98423.81;109578;1273;22425;-68
2022/01/01 01:04:18;;;;;;;4.40;3.30;;;;;;;3.19;96.15;98419.54;109450;1271;138669;-67
2022/01/01 01:06:46;;;;;;;6.30;3.90;;;;;;;3.20;96.12;98421.29;109519;1274;22458;-68
2022/01/01 01:09:14;;;;;;;6.20;4.10;;;;;;;3.22;96.11;98419.27;109562;1270;22386;-67
2022/01/01 01:11:45;;;;;;;8.20;4.80;;;;;;;3.23;96.05;98425.39;109470;1273;137871;-67
2022/01/01 01:14:23;;;;;;;6.70;4.40;;;;;;;3.25;96.24;98421.02;109558;1272;22557;-69
2022/01/01 01:16:52;;;;;;;10.40;5.20;;;;;;;3.26;96.25;98416.63;109445;1273;137526;-68
2022/01/01 01:19:20;;;;;;;6.80;4.60;;;;;;;3.27;96.26;98411.10;109546;1272;22496;-68
2022/01/01 01:21:49;;;;;;;13.90;5.80;;;;;;;3.29;96.21;98406.57;109462;1272;139539;-69
2022/01/01 01:24:18;;;;;;;7.80;5.00;;;;;;;3.31;96.28;98403.59;109542;1272;22459;-69
2022/01/01 01:26:49;;;;;;;7.10;4.30;;;;;;;3.32;96.29;98403.94;109630;1273;22437;-69
2022/01/01 01:29:18;;;;;;;7.10;4.00;;;;;;;3.33;96.41;98401.23;109346;1274;139356;-69
2022/01/01 01:31:46;;;;;;;7.90;4.20;;;;;;;3.35;96.45;98395.69;109537;1273;22404;-69
2022/01/01 01:34:14;;;;;;;8.10;4.30;;;;;;;3.37;96.41;98398.80;109451;1272;138381;-68
2022/01/01 01:36:42;;;;;;;5.90;3.80;;;;;;;3.38;96.58;98393.71;109539;1273;22437;-69
2022/01/01 01:39:10;;;;;;;7.10;4.30;;;;;;;3.41;96.48;98387.95;109554;1273;22739;-67
2022/01/01 01:41:41;;;;;;;7.90;4.20;;;;;;;3.42;96.44;98385.02;109481;1271;137496;-68
2022/01/01 01:44:30;;;;;;;5.40;3.80;;;;;;;3.44;96.50;98387.65;109518;1273;22465;-67
2022/01/01 01:47:01;;;;;;;6.20;3.70;;;;;;;3.46;96.56;98380.67;109443;1273;139043;-68
2022/01/01 01:49:29;;;;;;;7.30;4.20;;;;;;;3.49;96.48;98374.31;109589;1272;22422;-68
2022/01/01 01:51:57;;;;;;;8.40;4.80;;;;;;;3.50;96.48;98366.20;109443;1272;139750;-68
2022/01/01 01:54:25;;;;;;;7.60;3.80;;;;;;;3.53;96.87;98364.86;109547;1272;23509;-69
2022/01/01 01:56:53;;;;;;;6.40;4.20;;;;;;;3.54;96.79;98363.50;109377;1274;22440;-69
2022/01/01 01:59:21;;;;;;;5.70;4.00;;;;;;;3.57;96.77;98359.40;109439;1272;137500;-68
2022/01/01 02:01:50;;;;;;;6.30;3.90;;;;;;;3.60;96.87;98360.75;109506;1274;22399;-68
2022/01/01 02:04:18;;;;;;;4.80;3.60;;;;;;;3.62;97.02;98363.41;109455;1273;139166;-68
2022/01/01 02:06:48;;;;;;;6.40;3.80;;;;;;;3.65;96.87;98358.83;106605;1274;24238;-68
2022/01/01 02:09:16;;;;;;;8.00;4.40;;;;;;;3.68;97.10;98354.80;105055;1274;24275;-66
2022/01/01 02:11:46;;;;;;;6.20;4.50;;;;;;;3.70;97.14;98355.33;109358;1273;138507;-68
2022/01/01 02:14:22;;;;;;;6.40;4.50;;;;;;;3.73;97.19;98355.34;109517;1272;22562;-68
2022/01/01 02:19:30;;;;;;;6.70;5.10;;;;;;;3.76;96.94;98351.59;109565;1273;22423;-69
2022/01/01 02:22:00;;;;;;;7.50;5.40;;;;;;;3.78;97.13;98349.11;109358;1274;139563;-69
2022/01/01 02:24:30;;;;;;;7.20;5.50;;;;;;;3.81;97.05;98351.16;109559;1273;22534;-68
2022/01/01 02:26:58;;;;;;;7.80;5.90;;;;;;;3.83;97.23;98348.60;109569;1272;22451;-69
2022/01/01 02:29:26;;;;;;;9.90;6.80;;;;;;;3.86;97.28;98347.16;109331;1274;138931;-69
2022/01/01 02:31:54;;;;;;;10.00;7.10;;;;;;;3.90;97.44;98346.72;109585;1271;22324;-68
2022/01/01 02:34:22;;;;;;;11.10;7.10;;;;;;;3.93;97.19;98346.83;109417;1272;138037;-68
2022/01/01 02:36:51;;;;;;;8.90;6.50;;;;;;;3.96;97.35;98341.92;109538;1273;22432;-68
2022/01/01 02:39:20;;;;;;;11.10;6.90;;;;;;;3.99;97.25;98340.36;109593;1272;22381;-67
2022/01/01 02:41:50;;;;;;;12.10;7.60;;;;;;;4.02;97.34;98340.95;109399;1271;137839;-68
2022/01/01 02:44:22;;;;;;;13.70;9.10;;;;;;;4.06;97.55;98340.25;109554;1273;22465;-68
2022/01/01 02:46:54;;;;;;;10.50;8.10;;;;;;;4.08;97.61;98336.46;109449;1273;138798;-67
2022/01/01 02:49:23;;;;;;;10.50;6.50;;;;;;;4.11;97.63;98339.58;109506;1273;22449;-67
2022/01/01 02:51:51;;;;;;;10.20;7.80;;;;;;;4.14;97.40;98337.53;109460;1272;137904;-67
2022/01/01 02:54:19;;;;;;;9.70;6.90;;;;;;;4.16;97.40;98338.92;109588;1272;23072;-67
2022/01/01 02:56:48;;;;;;;9.90;7.00;;;;;;;4.18;97.61;98334.67;109546;1272;22436;-68
2022/01/01 02:59:16;;;;;;;9.50;6.90;;;;;;;4.21;97.55;98332.73;109509;1272;138093;-67
2022/01/01 03:01:45;;;;;;;8.90;6.60;;;;;;;4.25;97.95;98330.73;109562;1274;23094;-67
2022/01/01 03:04:13;;;;;;;9.80;6.10;;;;;;;4.27;97.78;98329.27;109403;1273;137955;-66
2022/01/01 03:06:41;;;;;;;9.30;6.90;;;;;;;4.30;97.91;98331.73;109546;1274;23052;-67
2022/01/01 03:09:09;;;;;;;10.10;7.20;;;;;;;4.33;97.74;98331.20;109452;1274;22467;-68
2022/01/01 03:11:37;;;;;;;11.90;8.00;;;;;;;4.35;97.74;98331.84;109478;1273;139132;-66
2022/01/01 03:14:18;;;;;;;12.00;8.50;;;;;;;4.38;98.21;98333.95;109578;1274;22478;-68
2022/01/01 03:16:46;;;;;;;12.70;8.30;;;;;;;4.41;97.98;98327.80;109442;1274;139514;-67
2022/01/01 03:19:14;;;;;;;14.30;9.70;;;;;;;4.43;97.81;98332.69;109569;1272;22385;-68
2022/01/01 03:21:42;;;;;;;13.60;8.90;;;;;;;4.46;97.75;98330.31;109494;1273;139062;-67
2022/01/01 03:24:10;;;;;;;13.30;10.70;;;;;;;4.49;97.73;98328.77;109549;1273;22490;-68
2022/01/01 03:26:41;;;;;;;14.60;10.80;;;;;;;4.51;98.22;98336.30;109575;1272;22518;-68
2022/01/01 03:29:10;;;;;;;14.70;10.30;;;;;;;4.55;98.09;98334.59;109447;1273;138650;-67
2022/01/01 03:31:37;;;;;;;15.40;10.90;;;;;;;4.57;97.99;98333.23;109489;1273;22482;-68
2022/01/01 03:34:05;;;;;;;15.70;10.60;;;;;;;4.60;98.17;98336.17;109475;1273;138682;-67
2022/01/01 03:36:33;;;;;;;15.40;10.70;;;;;;;4.62;98.16;98340.58;109528;1272;22488;-68
2022/01/01 03:39:02;;;;;;;15.30;10.40;;;;;;;4.66;98.13;98340.73;109541;1273;22454;-67
2022/01/01 03:41:39;;;;;;;14.30;10.10;;;;;;;4.70;98.15;98340.84;109501;1273;138958;-67
2022/01/01 03:44:07;;;;;;;14.10;10.80;;;;;;;4.72;98.42;98341.58;109578;1272;23413;-67
2022/01/01 03:46:36;;;;;;;14.70;10.20;;;;;;;4.75;98.50;98341.89;109434;1273;140122;-68
2022/01/01 03:49:04;;;;;;;14.30;10.80;;;;;;;4.78;98.40;98341.64;109443;1274;22442;-68
2022/01/01 03:51:32;;;;;;;14.60;10.90;;;;;;;4.80;98.46;98337.14;109564;1273;22455;-68
2022/01/01 03:54:00;;;;;;;15.70;10.60;;;;;;;4.83;98.28;98336.16;109385;1273;139595;-67
2022/01/01 03:56:29;;;;;;;15.30;11.10;;;;;;;4.87;98.77;98341.66;109551;1272;22520;-68
2022/01/01 03:58:56;;;;;;;16.10;11.10;;;;;;;4.92;98.53;98335.02;109361;1274;138324;-68
2022/01/01 04:01:25;;;;;;;16.00;11.70;;;;;;;4.95;98.75;98340.05;109600;1273;22420;-68
2022/01/01 04:03:53;;;;;;;15.50;10.30;;;;;;;5.00;98.93;98341.29;109425;1273;138300;-67
2022/01/01 04:06:21;;;;;;;15.60;10.40;;;;;;;5.03;98.88;98343.87;109567;1274;23761;-68
2022/01/01 04:08:49;;;;;;;13.80;9.70;;;;;;;5.07;98.81;98350.92;109508;1273;22408;-68
2022/01/01 04:11:17;;;;;;;13.90;10.40;;;;;;;5.13;99.12;98350.63;109382;1273;139129;-67
2022/01/01 04:13:45;;;;;;;15.30;11.00;;;;;;;5.17;98.88;98348.70;109568;1273;22601;-68
2022/01/01 04:16:13;;;;;;;15.10;11.40;;;;;;;5.20;99.09;98356.92;107536;1273;138333;-67
2022/01/01 04:18:41;;;;;;;15.80;11.10;;;;;;;5.21;99.13;98354.28;105075;1274;25273;-67
2022/01/01 04:21:09;;;;;;;14.00;10.10;;;;;;;5.24;98.92;98361.14;105124;1274;24272;-67
2022/01/01 04:23:38;;;;;;;11.00;9.30;;;;;;;5.27;98.86;98364.79;104949;1272;139093;-67
2022/01/01 04:26:07;;;;;;;13.70;11.00;;;;;;;5.30;99.31;98364.40;109474;1273;23004;-67
2022/01/01 04:28:40;;;;;;;12.80;9.70;;;;;;;5.30;99.16;98366.23;109488;1272;138098;-68
2022/01/01 04:31:08;;;;;;;13.70;10.60;;;;;;;5.31;99.36;98371.81;109569;1273;22404;-68
2022/01/01 04:33:36;;;;;;;13.20;10.20;;;;;;;5.34;99.25;98366.05;109579;1274;23472;-68
2022/01/01 04:36:04;;;;;;;15.20;9.80;;;;;;;5.36;99.41;98360.02;109459;1273;138794;-68
2022/01/01 04:38:37;;;;;;;14.90;10.00;;;;;;;5.37;99.60;98364.30;109555;1271;22534;-68
2022/01/01 04:41:06;;;;;;;10.90;8.10;;;;;;;5.43;99.68;98358.00;109441;1273;139019;-67
2022/01/01 04:43:34;;;;;;;11.60;8.80;;;;;;;5.46;99.89;98357.88;109490;1274;22378;-66
2022/01/01 04:46:03;;;;;;;12.40;8.80;;;;;;;5.47;99.61;98355.73;109441;1272;138331;-68
2022/01/01 04:48:31;;;;;;;14.50;8.20;;;;;;;5.47;99.45;98356.92;109589;1272;23271;-68
2022/01/01 04:50:58;;;;;;;10.10;7.70;;;;;;;5.49;99.34;98360.33;109562;1273;22433;-68
2022/01/01 04:53:26;;;;;;;9.80;7.40;;;;;;;5.54;99.84;98356.28;109426;1273;137950;-68
2022/01/01 04:55:54;;;;;;;10.90;7.80;;;;;;;5.58;99.70;98360.83;109595;1273;22556;-68
2022/01/01 04:58:22;;;;;;;13.60;7.40;;;;;;;5.60;99.71;98359.17;109387;1273;138206;-69
2022/01/01 05:00:49;;;;;;;10.00;7.70;;;;;;;5.63;99.63;98367.13;109577;1272;22444;-69
2022/01/01 05:03:17;;;;;;;8.50;6.80;;;;;;;5.65;99.74;98369.31;109579;1273;23435;-69
2022/01/01 05:05:46;;;;;;;9.80;7.10;;;;;;;5.67;99.90;98375.76;109468;1273;139608;-69
2022/01/01 05:08:13;;;;;;;10.30;7.70;;;;;;;5.68;99.57;98375.35;109554;1273;22485;-69
2022/01/01 05:10:45;;;;;;;10.60;8.10;;;;;;;5.71;99.76;98378.30;109487;1273;137992;-69
2022/01/01 05:13:14;;;;;;;11.30;8.20;;;;;;;5.75;99.69;98385.86;109563;1272;22569;-68
2022/01/01 05:15:42;;;;;;;7.70;6.20;;;;;;;5.78;99.80;98393.54;108555;1272;138289;-67
2022/01/01 05:18:10;;;;;;;10.10;6.80;;;;;;;5.77;99.81;98396.84;109330;1273;23329;-67
2022/01/01 05:20:37;;;;;;;8.60;6.00;;;;;;;5.81;99.90;98398.28;109559;1273;22239;-68
2022/01/01 05:23:05;;;;;;;7.90;6.10;;;;;;;5.86;99.87;98403.70;109475;1273;139160;-68
2022/01/01 05:25:33;;;;;;;7.00;5.90;;;;;;;5.87;99.88;98405.66;109541;1273;22480;-67
2022/01/01 05:28:01;;;;;;;7.90;5.90;;;;;;;5.88;99.90;98407.64;109440;1273;137984;-67
2022/01/01 05:30:29;;;;;;;7.70;6.00;;;;;;;5.90;100.00;98412.80;109589;1271;22388;-67
2022/01/01 05:33:01;;;;;;;6.40;5.30;;;;;;;5.92;99.92;98414.80;109536;1273;22619;-67
2022/01/01 05:35:40;;;;;;;6.50;5.60;;;;;;;5.93;99.91;98411.57;109461;1273;138082;-67
2022/01/01 05:38:10;;;;;;;7.90;5.30;;;;;;;5.94;99.84;98418.66;109494;1273;22422;-67
2022/01/01 05:40:56;;;;;;;6.60;5.30;;;;;;;5.93;99.97;98426.55;109433;1274;138658;-67
2022/01/01 05:43:24;;;;;;;6.70;4.90;;;;;;;5.94;99.96;98424.89;109559;1273;22491;-68
2022/01/01 05:45:52;;;;;;;7.60;5.30;;;;;;;5.92;99.88;98431.15;109471;1272;138202;-67
2022/01/01 05:48:20;;;;;;;5.70;4.70;;;;;;;5.94;99.92;98434.71;109563;1273;22476;-67
2022/01/01 05:50:48;;;;;;;7.90;5.40;;;;;;;5.92;100.00;98440.13;109608;1273;22422;-67
2022/01/01 05:53:16;;;;;;;7.00;5.30;;;;;;;5.90;99.70;98439.59;109455;1273;138067;-68
2022/01/01 05:55:44;;;;;;;7.40;5.60;;;;;;;5.90;99.68;98448.05;108490;1273;24317;-67
2022/01/01 05:58:13;;;;;;;9.60;6.10;;;;;;;5.90;99.73;98452.16;109360;1273;138675;-68
2022/01/01 06:00:41;;;;;;;6.60;5.20;;;;;;;5.89;99.80;98460.37;109559;1273;22532;-68
2022/01/01 06:03:10;;;;;;;6.90;4.70;;;;;;;5.89;99.73;98470.77;109501;1274;23267;-68
2022/01/01 06:05:38;;;;;;;7.00;5.20;;;;;;;5.90;99.69;98472.93;109462;1273;139375;-68
2022/01/01 06:08:06;;;;;;;8.10;5.40;;;;;;;5.91;99.88;98485.00;109572;1274;22441;-68
2022/01/01 06:10:34;;;;;;;6.60;4.10;;;;;;;5.91;99.86;98488.17;109503;1273;138041;-68
2022/01/01 06:13:04;;;;;;;5.40;3.70;;;;;;;5.90;99.80;98495.05;109578;1272;22532;-67
2022/01/01 06:15:33;;;;;;;6.70;3.70;;;;;;;5.91;99.64;98497.12;109442;1273;23101;-68
2022/01/01 06:18:02;;;;;;;5.20;3.20;;;;;;;5.91;99.45;98499.96;109471;1273;138539;-67
2022/01/01 06:20:30;;;;;;;5.40;3.00;;;;;;;5.90;99.19;98502.39;109555;1273;23207;-68
2022/01/01 06:23:07;;;;;;;8.30;3.60;;;;;;;5.89;99.38;98508.20;109482;1274;138039;-67
2022/01/01 06:25:35;;;;;;;4.40;2.70;;;;;;;5.87;99.32;98514.76;109582;1273;23196;-68
2022/01/01 06:28:03;;;;;;;4.10;2.70;;;;;;;5.85;99.09;98518.19;109436;1272;138972;-68
2022/01/01 06:30:34;;;;;;;7.40;2.90;;;;;;;5.84;99.00;98527.30;109598;1271;22442;-68
2022/01/01 06:33:14;;;;;;;4.60;3.50;;;;;;;5.83;98.88;98534.98;109590;1273;23281;-67
2022/01/01 06:35:43;;;;;;;5.50;2.70;;;;;;;5.83;98.75;98546.64;109462;1273;137792;-67
2022/01/01 06:38:11;;;;;;;4.80;2.90;;;;;;;5.83;98.74;98551.67;109574;1273;23317;-68
2022/01/01 06:40:39;;;;;;;3.50;2.50;;;;;;;5.82;98.73;98556.91;109478;1273;138884;-67
2022/01/01 06:43:12;;;;;;;5.50;2.70;;;;;;;5.82;98.58;98557.18;109541;1273;22430;-67
2022/01/01 06:45:39;;;;;;;6.80;2.90;;;;;;;5.81;98.46;98559.73;109438;1273;139544;-65
2022/01/01 06:48:07;;;;;;;4.40;2.40;;;;;;;5.80;97.92;98561.52;109530;1272;22426;-67
2022/01/01 06:50:39;;;;;;;6.00;2.90;;;;;;;5.78;98.05;98569.22;109546;1274;22417;-68
2022/01/01 06:53:10;;;;;;;3.00;2.00;;;;;;;5.76;97.91;98577.44;109474;1273;138563;-68
2022/01/01 06:55:38;;;;;;;4.70;2.80;;;;;;;5.74;98.17;98580.11;109552;1272;23482;-66
2022/01/01 06:58:06;;;;;;;6.20;2.30;;;;;;;5.74;97.89;98587.57;109434;1271;138081;-67
2022/01/01 07:00:34;;;;;;;4.00;2.80;;;;;;;5.73;97.85;98587.60;109507;1274;22212;-67
2022/01/01 07:03:04;;;;;;;4.60;2.30;;;;;;;5.71;98.00;98592.45;109516;1273;22619;-67
2022/01/01 07:05:33;;;;;;;2.70;2.00;;;;;;;5.69;97.40;98602.19;109440;1274;137865;-68
2022/01/01 07:08:01;;;;;;;3.10;2.30;;;;;;;5.68;97.92;98604.33;109574;1273;22535;-67
2022/01/01 07:10:33;;;;;;;3.10;2.30;;;;;;;5.66;97.52;98606.37;109420;1273;139174;-68
2022/01/01 07:13:00;;;;;;;3.50;2.50;;;;;;;5.65;97.89;98606.83;109580;1273;22544;-67
2022/01/01 07:15:28;;;;;;;3.10;2.10;;;;;;;5.62;97.27;98607.77;109524;1274;22416;-68
2022/01/01 07:17:56;;;;;;;2.70;2.20;;;;;;;5.61;97.32;98608.86;109356;1274;138596;-67
2022/01/01 07:20:24;;;;;;;2.70;1.60;;;;;;;5.59;97.34;98615.09;109500;1274;22495;-67
2022/01/01 07:22:51;;;;;;;2.10;1.30;;;;;;;5.58;96.99;98612.91;109355;1273;137944;-67
2022/01/01 07:25:20;;;;;;;2.30;1.70;;;;;;;5.58;96.91;98620.03;109192;1274;22554;-66
2022/01/01 07:27:48;;;;;;;1.90;1.50;;;;;;;5.58;97.12;98621.13;105002;1274;138290;-66
2022/01/01 07:30:16;;;;;;;3.00;1.70;;;;;;;5.57;96.98;98631.74;109385;1274;22450;-67
2022/01/01 07:32:48;;;;;;;2.00;1.70;;;;;;;5.57;96.64;98639.85;109488;1274;22588;-68
2022/01/01 07:35:17;;;;;;;2.50;1.90;;;;;;;5.57;96.85;98640.59;109367;1274;138445;-67
2022/01/01 07:37:45;;;;;;;2.00;1.70;;;;;;;5.56;96.82;98636.43;109477;1274;22464;-66
2022/01/01 07:40:14;;;;;;;3.90;2.30;;;;;;;5.55;96.82;98638.15;109396;1273;138398;-66
2022/01/01 07:42:42;;;;;;;6.10;3.10;;;;;;;5.55;97.03;98639.81;109491;1274;23359;-66
2022/01/01 07:45:10;;;;;;;3.80;2.90;;;;;;;5.55;96.81;98641.27;109490;1274;22564;-66
2022/01/01 07:47:40;;;;;;;3.40;2.70;;;;;;;5.53;96.75;98642.05;109422;1274;137935;-69
2022/01/01 07:50:09;;;;;;;8.00;3.80;;;;;;;5.52;96.56;98641.55;109493;1274;22415;-69
2022/01/01 07:52:38;;;;;;;4.10;3.30;;;;;;;5.50;96.57;98643.09;109330;1274;137881;-68
2022/01/01 07:55:06;;;;;;;4.20;2.80;;;;;;;5.50;96.64;98640.80;109513;1273;23255;-68
2022/01/01 07:57:34;;;;;;;3.00;2.70;;;;;;;5.48;96.79;98642.57;109485;1273;22485;-68
2022/01/01 08:00:03;;;;;;;2.70;1.90;;;;;;;5.46;96.77;98640.88;109372;1273;138148;-67
2022/01/01 08:02:31;;;;;;;2.20;1.70;;;;;;;5.45;96.88;98644.15;109514;1273;22443;-68
2022/01/01 08:04:59;;;;;;;1.50;1.30;;;;;;;5.43;96.76;98643.79;109368;1274;138579;-68
2022/01/01 08:07:27;;;;;;;3.50;1.70;;;;;;;5.42;96.85;98649.71;105303;1274;25269;-69
2022/01/01 08:10:19;;;;;;;1.60;1.40;;;;;;;5.40;96.48;98646.92;104999;1274;138937;-68
2022/01/01 08:12:47;;;;;;;1.20;1.10;;;;;;;5.39;96.89;98649.82;105033;1274;24250;-66
2022/01/01 08:15:16;;;;;;;1.90;1.40;;;;;;;5.39;96.94;98653.27;109569;1273;23588;-67
2022/01/01 08:17:44;;;;;;;1.60;1.20;;;;;;;5.38;96.80;98655.44;109424;1273;138995;-68
2022/01/01 08:20:12;;;;;;;1.70;1.20;;;;;;;5.41;96.84;98655.70;109542;1273;22475;-67
2022/01/01 08:22:41;;;;;;;1.40;1.10;;;;;;;5.41;96.57;98652.77;109445;1272;138786;-67
2022/01/01 08:25:08;;;;;;;1.70;0.80;;;;;;;5.42;96.67;98653.50;109566;1274;22408;-67
2022/01/01 08:27:36;;;;;;;1.50;1.00;;;;;;;5.42;96.75;98651.62;109551;1274;22545;-67
2022/01/01 08:30:05;;;;;;;0.80;0.80;;;;;;;5.42;96.17;98656.57;109431;1272;138139;-66
2022/01/01 08:32:36;;;;;;;0.90;0.70;;;;;;;5.41;96.56;98662.56;109519;1273;22460;-67
2022/01/01 08:35:04;;;;;;;2.40;1.40;;;;;;;5.41;96.35;98664.98;109469;1274;138220;-67
2022/01/01 08:37:35;;;;;;;1.80;1.20;;;;;;;5.40;96.30;98664.33;109563;1273;23088;-66
2022/01/01 08:40:04;;;;;;;2.80;1.60;;;;;;;5.41;96.53;98667.80;109292;1274;139441;-66
2022/01/01 08:42:34;;;;;;;3.40;1.30;;;;;;;5.41;96.32;98670.44;109488;1274;23262;-66
2022/01/01 08:45:03;;;;;;;2.20;1.40;;;;;;;5.38;96.18;98670.60;109608;1273;22409;-67
2022/01/01 08:47:32;;;;;;;1.80;1.30;;;;;;;5.37;96.53;98668.65;109427;1273;139235;-66
2022/01/01 08:49:59;;;;;;;3.20;1.70;;;;;;;5.36;96.25;98668.04;109603;1273;22537;-66
2022/01/01 08:52:28;;;;;;;3.20;1.60;;;;;;;5.36;96.61;98674.52;109457;1273;139069;-66
2022/01/01 08:54:56;;;;;;;2.70;2.00;;;;;;;5.37;96.14;98675.24;109587;1273;23291;-67
2022/01/01 08:57:24;;;;;;;2.30;1.50;;;;;;;5.37;96.62;98674.21;109591;1272;22503;-67
2022/01/01 08:59:52;;;;;;;2.50;1.20;;;;;;;5.37;96.46;98678.73;109417;1273;138407;-67
2022/01/01 09:02:20;;;;;;;3.60;2.00;;;;;;;5.36;96.37;98674.57;109568;1273;23225;-66
2022/01/01 09:04:49;;;;;;;1.90;1.20;;;;;;;5.34;96.49;98676.33;109449;1273;137862;-67
2022/01/01 09:07:17;;;;;;;2.80;1.50;;;;;;;5.32;96.32;98687.86;109532;1271;22564;-66
2022/01/01 09:09:45;;;;;;;2.60;1.70;;;;;;;5.29;96.17;98687.49;109454;1274;137860;-65
2022/01/01 09:12:13;;;;;;;1.20;1.10;;;;;;;5.27;96.58;98687.99;109618;1273;22371;-67
2022/01/01 09:14:42;;;;;;;1.60;1.10;;;;;;;5.26;96.46;98689.33;109543;1274;22413;-66
2022/01/01 09:17:12;;;;;;;1.50;1.30;;;;;;;5.24;96.45;98695.88;109503;1273;138985;-66
2022/01/01 09:19:41;;;;;;;3.60;1.50;;;;;;;5.24;96.63;98694.46;109587;1274;22847;-66
2022/01/01 09:22:28;;;;;;;1.20;1.10;;;;;;;5.25;96.42;98693.95;109424;1273;139638;-66
2022/01/01 09:24:56;;;;;;;1.70;1.20;;;;;;;5.25;96.29;98695.47;109562;1273;22627;-66
2022/01/01 09:27:24;;;;;;;2.30;1.40;;;;;;;5.27;96.36;98696.05;109585;1273;23252;-67
2022/01/01 09:29:52;;;;;;;1.70;1.50;;;;;;;5.28;96.13;98703.30;109289;1274;139188;-67
2022/01/01 09:32:20;;;;;;;2.00;1.00;;;;;;;5.30;95.89;98694.41;109564;1273;22531;-66
2022/01/01 09:34:48;;;;;;;1.50;1.10;;;;;;;5.30;95.79;98691.25;109470;1274;137684;-67
2022/01/01 09:37:32;;;;;;;3.70;1.40;;;;;;;5.32;95.77;98690.95;105143;1274;23475;-65
2022/01/01 09:40:00;;;;;;;1.40;1.00;;;;;;;5.33;95.77;98691.98;109378;1274;139777;-67
2022/01/01 09:42:29;;;;;;;1.40;1.20;;;;;;;5.33;95.42;98695.98;109579;1273;22530;-68
2022/01/01 09:45:07;;;;;;;2.50;1.40;;;;;;;5.33;95.41;98701.66;109566;1273;22501;-68
2022/01/01 09:47:36;;;;;;;5.00;2.00;;;;;;;5.34;95.71;98708.20;108805;1274;139256;-67
2022/01/01 09:50:05;;;;;;;3.80;2.30;;;;;;;5.34;95.53;98713.21;109525;1272;23422;-68
2022/01/01 09:52:36;;;;;;;2.80;1.70;;;;;;;5.32;95.54;98712.61;109422;1273;137857;-68
2022/01/01 09:55:04;;;;;;;2.50;1.40;;;;;;;5.30;95.28;98709.16;109492;1274;22457;-67
2022/01/01 09:57:35;;;;;;;7.10;2.60;;;;;;;5.27;95.40;98707.06;109535;1272;23366;-66
2022/01/01 10:00:04;;;;;;;5.10;2.30;;;;;;;5.25;95.00;98711.17;109441;1274;138824;-65
2022/01/01 10:02:32;;;;;;;4.90;2.10;;;;;;;5.26;95.18;98716.23;109591;1273;22435;-66
2022/01/01 10:05:05;;;;;;;5.70;2.10;;;;;;;5.28;94.60;98713.12;109440;1273;139655;-65
2022/01/01 10:07:36;;;;;;;3.40;2.10;;;;;;;5.30;94.58;98709.17;109547;1274;22470;-66
2022/01/01 10:10:21;;;;;;;3.80;1.90;;;;;;;5.31;94.45;98708.44;109463;1273;138725;-65
2022/01/01 10:13:11;;;;;;;2.00;1.40;;;;;;;5.31;94.45;98706.70;109536;1273;22585;-65
2022/01/01 10:15:40;;;;;;;2.30;1.80;;;;;;;5.29;94.19;98704.57;109536;1273;23257;-65
2022/01/01 10:18:08;;;;;;;5.80;3.80;;;;;;;5.29;94.36;98703.42;109514;1273;138198;-66
2022/01/01 10:20:43;;;;;;;4.10;2.20;;;;;;;5.29;94.06;98702.50;109489;1273;23802;-66
2022/01/01 10:23:12;;;;;;;4.40;2.10;;;;;;;5.29;94.07;98704.45;109461;1273;137629;-66
2022/01/01 10:31:37;;;;;;;2.40;1.70;;;;;;;5.34;94.17;98709.83;101849;1309;545172;-65
2022/01/01 10:34:10;;;;;;;3.30;1.80;;;;;;;5.33;93.84;98711.44;104092;1284;138497;-66
2022/01/01 10:36:38;;;;;;;4.70;3.00;;;;;;;5.33;93.88;98712.30;108499;1283;22392;-66
2022/01/01 10:39:07;;;;;;;2.50;2.00;;;;;;;5.33;93.99;98709.77;108545;1283;22674;-50
2022/01/01 10:41:46;;;;;;;2.60;2.20;;;;;;;5.33;93.95;98710.56;108465;1283;137533;-67
2022/01/01 10:44:14;;;;;;;2.00;1.80;;;;;;;5.34;93.83;98719.38;108419;1280;122974;-66
2022/01/01 10:46:47;;;;;;;3.10;2.50;;;;;;;5.34;93.82;98717.33;108755;1280;137505;-66
2022/01/01 10:49:33;;;;;;;4.60;3.40;;;;;;;5.35;93.72;98718.41;108905;1280;22593;-67
2022/01/01 10:52:20;;;;;;;6.00;4.20;;;;;;;5.36;93.49;98723.94;108674;1280;137568;-66
2022/01/01 10:54:59;;;;;;;2.50;1.70;;;;;;;5.36;93.30;98714.05;108840;1280;22484;-66
2022/01/01 10:57:28;;;;;;;5.80;5.30;;;;;;;5.35;93.67;98723.81;108912;1280;22455;-66
2022/01/01 11:00:09;;;;;;;2.80;2.50;;;;;;;5.36;93.35;98725.61;108715;1280;137452;-67
2022/01/01 11:02:43;;;;;;;3.80;2.60;;;;;;;5.36;93.01;98718.91;108800;1282;22462;-67
2022/01/01 11:05:12;;;;;;;4.50;3.00;;;;;;;5.35;93.64;98724.20;108752;1280;138008;-67
2022/01/01 11:07:50;;;;;;;8.60;2.90;;;;;;;5.36;93.33;98721.39;108817;1280;23221;-68
2022/01/01 11:10:24;;;;;;;3.60;2.90;;;;;;;5.36;93.35;98722.52;108762;1279;137737;-67
2022/01/01 11:12:54;;;;;;;4.90;3.60;;;;;;;5.35;93.14;98722.95;108856;1280;22434;-68
2022/01/01 11:15:23;;;;;;;7.40;6.60;;;;;;;5.35;93.04;98722.41;108436;1280;25479;-66
2022/01/01 11:17:50;;;;;;;6.50;5.80;;;;;;;5.36;92.98;98722.48;104477;1280;138442;-68
2022/01/01 11:20:19;;;;;;;5.40;4.40;;;;;;;5.37;92.74;98720.71;104575;1280;23069;-67
2022/01/01 11:22:48;;;;;;;9.30;8.30;;;;;;;5.37;93.06;98717.52;104468;1280;139260;-67
2022/01/01 11:25:33;;;;;;;10.10;9.10;;;;;;;5.39;92.99;98722.63;104638;1281;25551;-66
2022/01/01 11:28:03;;;;;;;8.00;5.90;;;;;;;5.38;92.80;98722.80;108718;1281;139358;-66
2022/01/01 11:30:35;;;;;;;4.40;3.40;;;;;;;5.38;92.44;98726.58;108861;1281;23361;-66
2022/01/01 11:33:07;;;;;;;4.40;2.30;;;;;;;5.39;92.95;98722.91;108628;1281;22624;-66
2022/01/01 11:35:41;;;;;;;3.70;2.60;;;;;;;5.39;92.74;98722.76;108451;1283;137724;-66
2022/01/01 11:38:15;;;;;;;5.00;3.10;;;;;;;5.38;92.46;98720.80;108604;1281;22492;-66
2022/01/01 11:41:15;;;;;;;6.00;4.50;;;;;;;5.40;92.86;98719.52;108621;1282;137625;-66
2022/01/01 11:43:47;;;;;;;4.10;2.90;;;;;;;5.42;93.00;98713.58;108598;1283;22469;-67
2022/01/01 11:46:17;;;;;;;3.50;2.20;;;;;;;5.44;93.16;98708.75;108569;1282;139033;-67
2022/01/01 11:48:47;;;;;;;4.70;2.50;;;;;;;5.49;93.03;98710.49;108737;1282;22516;-67